createdAt,value
2019-04-11T00:01:32.523Z,7.50
2019-04-11T00:03:51.814Z,7.41
2019-04-11T00:06:21.401Z,7.25
2019-04-11T00:08:50.904Z,7.09
2019-04-11T00:11:20.505Z,7.02
2019-04-11T00:13:50.015Z,6.85
2019-04-11T00:16:19.605Z,6.60
2019-04-11T00:18:49.252Z,6.41
2019-04-11T00:21:18.801Z,6.33
2019-04-11T00:23:48.360Z,6.17
2019-04-11T00:26:17.997Z,6.08
2019-04-11T00:28:47.977Z,6.00
2019-04-11T00:31:18.798Z,5.87
2019-04-11T00:33:48.774Z,5.97
2019-04-11T00:36:18.328Z,5.77
2019-04-11T00:38:47.898Z,5.83
2019-04-11T00:41:17.569Z,5.79
2019-04-11T00:43:47.224Z,5.74
2019-04-11T00:46:16.720Z,5.57
2019-04-11T00:48:46.221Z,5.60
2019-04-11T00:51:16.116Z,5.46
2019-04-11T00:53:46.798Z,5.49
2019-04-11T00:56:16.387Z,5.31
2019-04-11T00:58:45.910Z,5.33
2019-04-11T01:01:15.708Z,5.43
2019-04-11T01:03:45.459Z,5.42
2019-04-11T01:06:16.131Z,5.40
2019-04-11T01:08:46.074Z,5.53
2019-04-11T01:11:16.127Z,5.79
2019-04-11T01:13:50.935Z,6.06
2019-04-11T01:16:32.949Z,6.16
2019-04-11T01:19:02.662Z,6.30
2019-04-11T01:21:32.809Z,6.48
2019-04-11T01:24:02.410Z,6.57
2019-04-11T01:26:32.987Z,6.61
2019-04-11T01:29:03.034Z,6.68
2019-04-11T01:31:35.812Z,6.61
2019-04-11T01:34:06.459Z,6.64
2019-04-11T01:36:36.049Z,6.60
2019-04-11T01:39:29.821Z,6.59
2019-04-11T01:41:59.335Z,6.48
2019-04-11T01:44:28.854Z,6.51
2019-04-11T01:46:58.445Z,6.50
2019-04-11T01:49:28.348Z,6.46
2019-04-11T01:51:58.263Z,6.52
2019-04-11T01:54:28.161Z,6.63
2019-04-11T01:56:58.061Z,6.64
2019-04-11T01:59:27.577Z,6.66
2019-04-11T02:02:14.825Z,6.69
2019-04-11T02:04:52.234Z,6.78
2019-04-11T02:07:26.881Z,6.67
2019-04-11T02:09:56.775Z,6.56
2019-04-11T02:12:26.903Z,6.37
2019-04-11T02:14:57.645Z,6.29
2019-04-11T02:17:27.469Z,6.06
2019-04-11T02:19:58.698Z,6.00
2019-04-11T02:22:36.059Z,5.67
2019-04-11T02:25:14.555Z,5.53
2019-04-11T02:27:44.248Z,5.28
2019-04-11T02:30:16.761Z,5.20
2019-04-11T02:32:47.886Z,5.10
2019-04-11T02:35:18.184Z,4.87
2019-04-11T02:37:51.763Z,4.73
2019-04-11T02:40:20.650Z,4.83
2019-04-11T02:42:51.986Z,4.86
2019-04-11T02:45:35.736Z,4.81
2019-04-11T02:47:55.778Z,4.84
2019-04-11T02:50:26.510Z,4.85
2019-04-11T02:52:56.738Z,4.93
2019-04-11T02:55:27.729Z,4.97
2019-04-11T02:57:59.722Z,5.13
2019-04-11T03:00:30.827Z,5.35
2019-04-11T03:03:01.638Z,5.53
2019-04-11T03:05:34.445Z,5.72
2019-04-11T03:08:09.180Z,5.82
2019-04-11T03:10:36.029Z,5.98
2019-04-11T03:13:05.406Z,6.06
2019-04-11T03:15:53.596Z,6.12
2019-04-11T03:18:09.418Z,6.15
2019-04-11T03:20:45.707Z,6.20
2019-04-11T03:23:12.363Z,6.18
2019-04-11T03:25:40.712Z,6.19
2019-04-11T03:28:14.809Z,6.20
2019-04-11T03:31:01.876Z,6.21
2019-04-11T03:36:45.314Z,6.23
2019-04-11T03:38:36.892Z,6.24
2019-04-11T03:41:08.637Z,6.28
2019-04-11T03:43:29.907Z,6.26
2019-04-11T03:46:11.865Z,6.20
2019-04-11T03:48:32.903Z,6.25
2019-04-11T03:50:54.236Z,6.22
2019-04-11T03:53:26.482Z,6.25
2019-04-11T03:55:56.037Z,6.28
2019-04-11T03:58:26.047Z,6.26
2019-04-11T04:01:00.931Z,6.16
2019-04-11T04:03:28.982Z,6.17
2019-04-11T04:06:00.037Z,6.16
2019-04-11T04:08:31.458Z,6.13
2019-04-11T04:11:25.130Z,6.15
2019-04-11T04:14:04.420Z,6.18
2019-04-11T04:16:54.848Z,6.12
2019-04-11T04:19:43.811Z,6.10
2019-04-11T04:22:20.749Z,6.08
2019-04-11T04:24:53.207Z,6.05
2019-04-11T04:27:25.171Z,6.04
2019-04-11T04:29:57.615Z,6.09
2019-04-11T04:32:25.511Z,6.05
2019-04-11T04:34:56.390Z,6.06
2019-04-11T04:37:27.042Z,6.02
2019-04-11T04:40:17.876Z,6.02
2019-04-11T04:42:35.449Z,6.01
2019-04-11T04:45:00.179Z,6.03
2019-04-11T04:47:37.041Z,6.02
2019-04-11T04:50:01.574Z,6.06
2019-04-11T04:52:33.909Z,6.09
2019-04-11T04:55:05.874Z,6.06
2019-04-11T04:57:35.853Z,6.06
2019-04-11T05:00:07.130Z,6.06
2019-04-11T05:02:37.346Z,6.07
2019-04-11T05:05:09.425Z,6.08
2019-04-11T05:07:40.863Z,6.23
2019-04-11T05:10:11.261Z,6.28
2019-04-11T05:12:41.796Z,6.24
2019-04-11T05:15:12.173Z,6.20
2019-04-11T05:17:42.434Z,6.25
2019-04-11T05:20:14.069Z,6.24
2019-04-11T05:22:43.740Z,6.25
2019-04-11T05:25:13.299Z,6.25
2019-04-11T05:27:42.805Z,6.26
2019-04-11T05:30:14.574Z,6.30
2019-04-11T05:32:45.207Z,6.69
2019-04-11T05:35:14.841Z,6.68
2019-04-11T05:37:45.125Z,6.53
2019-04-11T05:40:14.888Z,6.47
2019-04-11T05:42:45.166Z,6.49
2019-04-11T05:45:19.457Z,6.56
2019-04-11T05:47:49.831Z,6.58
2019-04-11T05:50:24.815Z,6.63
2019-04-11T05:52:54.660Z,6.70
2019-04-11T05:55:24.567Z,6.76
2019-04-11T05:57:54.424Z,6.82
2019-04-11T06:00:41.815Z,6.83
2019-04-11T06:03:11.664Z,6.91
2019-04-11T06:06:00.751Z,6.95
2019-04-11T06:08:31.904Z,6.98
2019-04-11T06:11:14.451Z,7.00
2019-04-11T06:14:02.431Z,7.06
2019-04-11T06:16:38.889Z,7.38
2019-04-11T06:19:31.017Z,7.50
2019-04-11T06:22:04.552Z,7.57
2019-04-11T06:24:48.539Z,7.61
2019-04-11T06:27:31.618Z,7.71
2019-04-11T06:30:24.443Z,7.59
2019-04-11T06:33:12.272Z,7.60
2019-04-11T06:35:54.952Z,7.87
2019-04-11T06:38:43.498Z,7.84
2019-04-11T06:41:32.790Z,7.91
2019-04-11T06:44:09.005Z,8.02
2019-04-11T06:47:02.108Z,8.22
2019-04-11T06:49:50.997Z,8.40
2019-04-11T06:52:20.938Z,8.68
2019-04-11T06:55:12.785Z,9.19
2019-04-11T06:57:42.488Z,9.07
2019-04-11T07:00:12.706Z,8.81
2019-04-11T07:02:46.539Z,9.15
2019-04-11T07:05:16.662Z,9.33
2019-04-11T07:07:49.790Z,9.14
2019-04-11T07:10:22.748Z,8.88
2019-04-11T07:13:05.637Z,8.81
2019-04-11T07:15:44.250Z,9.06
2019-04-11T07:18:31.755Z,9.29
2019-04-11T07:21:06.423Z,9.18
2019-04-11T07:23:53.959Z,8.59
2019-04-11T07:26:43.812Z,8.53
2019-04-11T07:29:33.560Z,8.52
2019-04-11T07:32:16.173Z,8.23
2019-04-11T07:35:04.779Z,8.13
2019-04-11T07:37:45.248Z,8.08
2019-04-11T07:40:39.216Z,7.97
2019-04-11T07:43:13.515Z,8.18
2019-04-11T07:45:58.815Z,8.07
2019-04-11T07:48:34.449Z,8.15
2019-04-11T07:54:18.668Z,8.53
2019-04-11T07:57:08.374Z,8.45
2019-04-11T07:59:55.838Z,8.62
2019-04-11T08:02:43.447Z,8.88
2019-04-11T08:05:34.452Z,8.70
2019-04-11T08:08:26.304Z,8.92
2019-04-11T08:11:15.762Z,9.02
2019-04-11T08:14:04.375Z,8.77
2019-04-11T08:16:58.007Z,8.88
2019-04-11T08:19:45.389Z,9.11
2019-04-11T08:22:32.981Z,9.23
2019-04-11T08:25:39.884Z,9.33
2019-04-11T08:28:12.712Z,9.46
2019-04-11T08:31:01.371Z,9.72
2019-04-11T08:33:33.021Z,9.79
2019-04-11T08:36:29.587Z,9.70
2019-04-11T08:39:00.691Z,9.61
2019-04-11T08:41:42.071Z,9.50
2019-04-11T08:44:21.220Z,9.51
2019-04-11T08:46:55.970Z,9.66
2019-04-11T08:49:33.751Z,9.28
2019-04-11T08:52:08.577Z,9.37
2019-04-11T08:54:57.573Z,9.38
2019-04-11T08:57:36.164Z,9.48
2019-04-11T09:00:26.304Z,9.47
2019-04-11T09:03:01.862Z,9.83
2019-04-11T09:05:53.359Z,9.72
2019-04-11T09:08:51.104Z,9.88
2019-04-11T09:11:27.055Z,9.87
2019-04-11T09:14:09.965Z,9.87
2019-04-11T09:16:52.106Z,10.01
2019-04-11T09:19:41.126Z,10.06
2019-04-11T09:22:48.852Z,9.97
2019-04-11T09:25:37.063Z,9.93
2019-04-11T09:28:15.461Z,10.27
2019-04-11T09:31:09.246Z,10.24
2019-04-11T09:33:57.615Z,10.32
2019-04-11T09:36:53.440Z,10.39
2019-04-11T09:39:45.474Z,10.00
2019-04-11T09:42:37.263Z,10.10
2019-04-11T09:45:33.215Z,10.02
2019-04-11T09:48:42.302Z,10.34
2019-04-11T09:51:31.634Z,10.57
2019-04-11T09:54:17.765Z,10.56
2019-04-11T09:57:04.846Z,10.74
2019-04-11T09:59:56.233Z,10.97
2019-04-11T10:02:50.706Z,11.08
2019-04-11T10:05:24.423Z,11.11
2019-04-11T10:08:12.762Z,11.02
2019-04-11T10:11:00.201Z,11.22
2019-04-11T10:13:40.992Z,11.32
2019-04-11T10:16:30.258Z,10.95
2019-04-11T10:19:19.960Z,11.25
2019-04-11T10:21:58.498Z,11.18
2019-04-11T10:24:38.914Z,11.07
2019-04-11T10:27:14.342Z,11.25
2019-04-11T10:30:06.600Z,11.23
2019-04-11T10:32:41.322Z,10.98
2019-04-11T10:35:30.435Z,10.92
2019-04-11T10:38:00.308Z,10.62
2019-04-11T10:40:45.130Z,10.67
2019-04-11T10:43:16.317Z,10.63
2019-04-11T10:46:13.239Z,10.41
2019-04-11T10:48:48.765Z,10.50
2019-04-11T10:51:28.049Z,10.54
2019-04-11T10:53:57.633Z,10.82
2019-04-11T10:56:41.199Z,10.81
2019-04-11T10:59:11.417Z,10.92
2019-04-11T11:01:58.539Z,10.85
2019-04-11T11:04:32.460Z,10.83
2019-04-11T11:07:10.177Z,10.82
2019-04-11T11:09:50.455Z,10.97
2019-04-11T11:12:25.940Z,11.16
2019-04-11T11:15:33.779Z,11.31
2019-04-11T11:18:39.878Z,11.51
2019-04-11T11:20:55.193Z,11.61
2019-04-11T11:23:40.888Z,11.48
2019-04-11T11:26:29.689Z,11.65
2019-04-11T11:29:37.138Z,11.96
2019-04-11T11:32:11.318Z,12.07
2019-04-11T11:34:49.267Z,12.05
2019-04-11T11:37:42.366Z,11.99
2019-04-11T11:40:30.011Z,12.02
2019-04-11T11:43:12.843Z,11.69
2019-04-11T11:46:00.929Z,11.70
2019-04-11T11:48:39.557Z,11.56
2019-04-11T11:51:17.301Z,11.48
2019-04-11T11:54:05.613Z,11.39
2019-04-11T11:56:36.391Z,11.43
2019-04-11T11:59:11.250Z,11.39
2019-04-11T12:01:49.276Z,11.67
2019-04-11T12:04:37.853Z,11.88
2019-04-11T12:07:08.672Z,11.75
2019-04-11T12:10:09.692Z,11.65
2019-04-11T12:13:05.879Z,11.59
2019-04-11T12:15:48.955Z,11.67
2019-04-11T12:18:46.532Z,11.70
2019-04-11T12:21:16.358Z,11.73
2019-04-11T12:24:06.102Z,11.91
2019-04-11T12:26:36.167Z,12.00
2019-04-11T12:29:24.104Z,11.85
2019-04-11T12:31:57.673Z,11.92
2019-04-11T12:34:45.180Z,11.91
2019-04-11T12:37:22.242Z,11.92
2019-04-11T12:40:12.845Z,12.13
2019-04-11T12:42:42.414Z,12.14
2019-04-11T12:45:33.968Z,12.19
2019-04-11T12:48:04.563Z,11.97
2019-04-11T12:50:52.624Z,11.91
2019-04-11T12:53:25.727Z,12.34
2019-04-11T12:56:03.554Z,12.19
2019-04-11T12:58:55.156Z,11.72
2019-04-11T13:01:35.288Z,11.95
2019-04-11T13:04:23.919Z,11.66
2019-04-11T13:07:04.714Z,11.61
2019-04-11T13:09:53.295Z,11.87
2019-04-11T13:12:44.950Z,11.63
2019-04-11T13:15:33.182Z,11.69
2019-04-11T13:18:25.265Z,11.72
2019-04-11T13:20:58.581Z,11.51
2019-04-11T13:23:35.442Z,11.66
2019-04-11T13:26:30.967Z,11.26
2019-04-11T13:29:19.439Z,11.47
2019-04-11T13:32:06.688Z,11.67
2019-04-11T13:34:36.546Z,11.90
2019-04-11T13:37:24.010Z,11.87
2019-04-11T13:40:02.500Z,11.62
2019-04-11T13:42:50.043Z,11.63
2019-04-11T13:45:19.686Z,11.98
2019-04-11T13:48:07.046Z,12.16
2019-04-11T13:50:36.583Z,12.32
2019-04-11T13:53:31.546Z,12.07
2019-04-11T13:56:01.112Z,12.16
2019-04-11T13:58:48.649Z,12.26
2019-04-11T14:01:18.510Z,12.23
2019-04-11T14:04:03.270Z,12.01
2019-04-11T14:06:39.441Z,11.90
2019-04-11T14:09:30.496Z,11.87
2019-04-11T14:12:05.081Z,11.82
2019-04-11T14:14:37.026Z,11.32
2019-04-11T14:17:24.602Z,11.30
2019-04-11T14:20:28.708Z,11.21
2019-04-11T14:23:14.783Z,10.98
2019-04-11T14:25:54.688Z,11.18
2019-04-11T14:28:25.620Z,11.21
2019-04-11T14:31:07.141Z,10.88
2019-04-11T14:33:39.306Z,10.81
2019-04-11T14:36:33.216Z,11.31
2019-04-11T14:38:59.612Z,11.31
2019-04-11T14:41:48.795Z,11.24
2019-04-11T14:44:18.372Z,11.25
2019-04-11T14:47:06.861Z,11.45
2019-04-11T14:49:40.529Z,11.63
2019-04-11T14:52:46.775Z,11.59
2019-04-11T14:55:19.068Z,11.88
2019-04-11T14:58:06.189Z,12.20
2019-04-11T15:00:38.176Z,12.22
2019-04-11T15:03:17.187Z,12.32
2019-04-11T15:06:04.585Z,12.12
2019-04-11T15:09:05.271Z,12.21
2019-04-11T15:11:44.356Z,12.40
2019-04-11T15:14:47.547Z,12.35
2019-04-11T15:17:18.216Z,12.01
2019-04-11T15:19:52.346Z,12.41
2019-04-11T15:22:26.140Z,12.43
2019-04-11T15:24:59.843Z,12.43
2019-04-11T15:27:47.518Z,12.29
2019-04-11T15:30:17.406Z,12.12
2019-04-11T15:33:21.308Z,12.28
2019-04-11T15:35:50.856Z,12.34
2019-04-11T15:38:38.440Z,12.35
2019-04-11T15:41:08.420Z,12.26
2019-04-11T15:43:56.768Z,12.41
2019-04-11T15:46:28.454Z,12.38
2019-04-11T15:49:21.933Z,12.37
2019-04-11T15:52:00.038Z,12.31
2019-04-11T15:54:48.583Z,12.27
2019-04-11T15:57:23.870Z,12.33
2019-04-11T16:00:25.289Z,12.43
2019-04-11T16:03:16.281Z,12.00
2019-04-11T16:06:11.182Z,12.01
2019-04-11T16:08:43.730Z,11.84
2019-04-11T16:11:47.843Z,11.98
2019-04-11T16:14:42.258Z,11.94
2019-04-11T16:17:36.944Z,11.78
2019-04-11T16:20:20.390Z,11.69
2019-04-11T16:23:15.129Z,11.86
2019-04-11T16:25:53.809Z,11.76
2019-04-11T16:28:55.852Z,11.34
2019-04-11T16:31:31.842Z,11.53
2019-04-11T16:34:29.585Z,11.31
2019-04-11T16:37:01.979Z,11.31
2019-04-11T16:39:52.095Z,11.11
2019-04-11T16:42:31.289Z,11.00
2019-04-11T16:45:16.568Z,11.05
2019-04-11T16:48:11.385Z,10.94
2019-04-11T16:50:40.951Z,10.97
2019-04-11T16:53:11.651Z,11.07
2019-04-11T16:55:43.454Z,11.07
2019-04-11T16:58:16.991Z,11.13
2019-04-11T17:00:44.644Z,10.99
2019-04-11T17:03:14.164Z,11.15
2019-04-11T17:05:50.758Z,11.17
2019-04-11T17:08:27.819Z,11.16
2019-04-11T17:11:03.400Z,11.13
2019-04-11T17:13:32.988Z,10.69
2019-04-11T17:16:03.895Z,10.99
2019-04-11T17:18:34.367Z,10.92
2019-04-11T17:21:07.777Z,10.91
2019-04-11T17:23:36.753Z,10.99
2019-04-11T17:26:06.792Z,10.93
2019-04-11T17:28:36.489Z,11.08
2019-04-11T17:31:06.095Z,11.11
2019-04-11T17:33:35.650Z,11.11
2019-04-11T17:36:05.262Z,10.96
2019-04-11T17:38:36.872Z,11.01
2019-04-11T17:41:06.231Z,11.03
2019-04-11T17:43:35.854Z,11.73
2019-04-11T17:46:05.450Z,12.28
2019-04-11T17:48:35.160Z,12.78
2019-04-11T17:51:05.740Z,12.44
2019-04-11T17:53:36.021Z,11.61
2019-04-11T17:56:05.619Z,11.29
2019-04-11T17:58:35.164Z,11.14
2019-04-11T18:01:06.047Z,10.86
2019-04-11T18:03:35.520Z,10.72
2019-04-11T18:06:05.131Z,10.41
2019-04-11T18:08:34.687Z,10.27
2019-04-11T18:11:04.292Z,10.16
2019-04-11T18:13:33.832Z,10.33
2019-04-11T18:16:03.352Z,10.35
2019-04-11T18:18:35.214Z,10.13
2019-04-11T18:21:07.034Z,10.28
2019-04-11T18:23:36.015Z,10.29
2019-04-11T18:26:05.886Z,10.02
2019-04-11T18:28:35.428Z,10.18
2019-04-11T18:31:05.038Z,10.21
2019-04-11T18:33:34.566Z,10.19
2019-04-11T18:36:04.113Z,10.12
2019-04-11T18:38:33.643Z,10.03
2019-04-11T18:41:03.257Z,9.96
2019-04-11T18:43:32.815Z,10.07
2019-04-11T18:46:02.335Z,9.97
2019-04-11T18:48:31.873Z,10.04
2019-04-11T18:51:01.437Z,10.10
2019-04-11T18:53:31.966Z,10.07
2019-04-11T18:56:01.812Z,10.14
2019-04-11T18:58:34.406Z,10.13
2019-04-11T19:01:08.793Z,10.02
2019-04-11T19:03:36.598Z,10.15
2019-04-11T19:06:06.473Z,10.24
2019-04-11T19:08:36.113Z,10.26
2019-04-11T19:11:05.745Z,10.37
2019-04-11T19:13:35.284Z,10.52
2019-04-11T19:16:04.877Z,10.54
2019-04-11T19:18:34.432Z,10.59
2019-04-11T19:21:03.969Z,10.59
2019-04-11T19:23:33.511Z,10.59
2019-04-11T19:26:03.215Z,10.48
2019-04-11T19:28:32.767Z,10.55
2019-04-11T19:31:02.310Z,10.67
2019-04-11T19:33:34.032Z,10.71
2019-04-11T19:36:03.097Z,10.81
2019-04-11T19:38:34.108Z,10.79
2019-04-11T19:41:03.614Z,10.85
2019-04-11T19:43:33.147Z,10.66
2019-04-11T19:46:02.682Z,10.75
2019-04-11T19:48:32.199Z,10.77
2019-04-11T19:51:01.740Z,10.83
2019-04-11T19:53:33.026Z,10.76
2019-04-11T19:56:22.363Z,10.58
2019-04-11T19:58:51.907Z,10.37
2019-04-11T20:01:23.440Z,10.44
2019-04-11T20:03:55.823Z,10.41
2019-04-11T20:06:25.335Z,10.26
2019-04-11T20:08:54.887Z,10.35
2019-04-11T20:11:24.403Z,10.27
2019-04-11T20:13:53.935Z,10.23
2019-04-11T20:16:23.534Z,10.18
2019-04-11T20:18:56.703Z,10.17
2019-04-11T20:21:24.371Z,10.20
2019-04-11T20:23:53.896Z,10.22
2019-04-11T20:26:24.388Z,10.06
2019-04-11T20:28:53.931Z,10.08
2019-04-11T20:31:23.445Z,10.01
2019-04-11T20:33:53.013Z,10.01
2019-04-11T20:36:32.826Z,9.84
2019-04-11T20:38:54.162Z,9.92
2019-04-11T20:41:23.822Z,9.56
2019-04-11T20:43:56.919Z,9.90
2019-04-11T20:46:28.748Z,9.75
2019-04-11T20:48:55.848Z,9.63
2019-04-11T20:51:25.372Z,9.48
2019-04-11T20:53:54.911Z,9.37
2019-04-11T20:56:24.734Z,9.08
2019-04-11T20:58:54.356Z,9.18
2019-04-11T21:01:26.216Z,9.37
2019-04-11T21:03:55.166Z,9.42
2019-04-11T21:06:24.678Z,9.49
2019-04-11T21:08:54.201Z,9.45
2019-04-11T21:11:23.732Z,9.22
2019-04-11T21:13:53.240Z,9.28
2019-04-11T21:16:22.766Z,9.26
2019-04-11T21:18:54.475Z,9.25
2019-04-11T21:21:25.226Z,9.23
2019-04-11T21:23:54.719Z,9.27
2019-04-11T21:26:24.235Z,9.09
2019-04-11T21:28:53.740Z,9.09
2019-04-11T21:31:23.255Z,9.06
2019-04-11T21:33:55.524Z,8.93
2019-04-11T21:36:26.914Z,8.96
2019-04-11T21:38:56.269Z,9.14
2019-04-11T21:41:25.786Z,9.24
2019-04-11T21:43:55.289Z,9.12
2019-04-11T21:46:24.816Z,9.22
2019-04-11T21:48:54.325Z,9.13
2019-04-11T21:51:23.849Z,9.16
2019-04-11T21:53:53.376Z,9.04
2019-04-11T21:56:22.905Z,8.98
2019-04-11T21:58:53.389Z,9.03
2019-04-11T22:01:24.877Z,8.93
2019-04-11T22:03:57.698Z,9.12
2019-04-11T22:06:30.529Z,8.93
2019-04-11T22:08:59.780Z,8.91
2019-04-11T22:11:29.297Z,8.91
2019-04-11T22:13:58.812Z,9.01
2019-04-11T22:16:28.402Z,8.69
2019-04-11T22:18:57.915Z,8.94
2019-04-11T22:21:27.434Z,9.05
2019-04-11T22:23:56.947Z,9.02
2019-04-11T22:26:26.470Z,9.05
2019-04-11T22:28:55.977Z,8.86
2019-04-11T22:31:25.713Z,8.84
2019-04-11T22:34:03.254Z,8.70
2019-04-11T22:36:32.778Z,8.57
2019-04-11T22:39:02.298Z,8.67
2019-04-11T22:41:33.436Z,8.77
2019-04-11T22:44:02.964Z,8.63
2019-04-11T22:46:32.450Z,8.54
2019-04-11T22:49:01.957Z,8.61
2019-04-11T22:51:31.470Z,8.28
2019-04-11T22:54:00.977Z,8.20
2019-04-11T22:56:30.495Z,8.24
2019-04-11T22:59:00.000Z,8.25
2019-04-11T23:01:29.510Z,8.27
2019-04-11T23:04:00.735Z,8.38
2019-04-11T23:06:30.261Z,8.50
2019-04-11T23:08:59.762Z,8.53
2019-04-11T23:11:29.345Z,8.42
2019-04-11T23:13:58.843Z,8.45
2019-04-11T23:16:28.355Z,8.46
2019-04-11T23:18:57.851Z,8.40
2019-04-11T23:21:28.328Z,8.32
2019-04-11T23:23:57.824Z,8.20
2019-04-11T23:26:27.346Z,8.35
2019-04-11T23:28:56.863Z,8.37
2019-04-11T23:31:26.382Z,8.53
2019-04-11T23:33:55.888Z,8.35
2019-04-11T23:36:25.402Z,8.33
2019-04-11T23:38:54.983Z,8.33
2019-04-11T23:41:24.487Z,8.37
2019-04-11T23:43:53.982Z,8.33
2019-04-11T23:46:23.488Z,8.28
2019-04-11T23:48:55.545Z,8.42
2019-04-11T23:51:26.302Z,8.48
2019-04-11T23:53:58.934Z,8.29
2019-04-11T23:56:30.125Z,8.24
2019-04-11T23:59:01.761Z,8.08
